EDT,Max TemperatureF,Mean TemperatureF,Min TemperatureF,Max Dew PointF,MeanDew PointF,Min DewpointF,Max Humidity, Mean Humidity, Min Humidity, Max Sea Level PressureIn, Mean Sea Level PressureIn, Min Sea Level PressureIn, Max VisibilityMiles, Mean VisibilityMiles, Min VisibilityMiles, Max Wind SpeedMPH, Mean Wind SpeedMPH, Max Gust SpeedMPH,PrecipitationIn, CloudCover, Events, WindDirDegrees
2014-3-1,33,16,0,21,7,-6,83,61,33,30.49,30.34,30.12,10,10,10,14,4,,0.00,2,,216
2014-3-2,37,32,27,24,20,14,76,60,54,30.10,30.05,30.00,10,10,9,12,6,,0.00,8,,295
2014-3-3,25,17,7,10,1,-7,57,48,37,30.34,30.19,30.04,10,10,10,15,10,22,0.00,3,,335
2014-3-4,27,11,-5,7,-2,-8,87,50,30,30.43,30.35,30.29,10,10,10,8,2,,0.00,3,,241
2014-3-5,24,20,15,19,15,1,88,76,39,30.55,30.36,30.28,10,8,2,9,5,,0.00,7,Snow,17
2014-3-6,28,17,6,4,-5,-12,70,42,19,30.69,30.62,30.56,10,10,10,9,5,,0.00,0,,346
2014-3-7,37,18,0,25,11,-6,83,67,39,30.55,30.30,30.00,10,10,10,7,1,,0.00,2,,80
2014-3-8,48,34,19,25,22,16,92,62,37,29.98,29.84,29.73,10,10,9,14,3,21,0.00,2,,315
2014-3-9,37,31,25,14,11,6,56,44,30,29.98,29.94,29.91,10,10,10,15,9,24,0.00,1,,294
2014-3-10,42,32,26,27,22,11,92,68,47,29.91,29.81,29.67,10,8,2,10,5,,0.00,7,Snow,210
2014-3-11,53,42,32,32,29,25,92,64,35,29.75,29.61,29.53,10,10,6,17,8,26,0.00,3,,242
2014-3-12,46,40,35,38,34,27,100,88,63,29.75,29.36,29.04,10,5,0,14,3,,0.40,8,Fog-Rain,10
2014-3-13,35,25,15,33,15,-2,96,76,47,29.99,29.36,29.02,10,5,0,23,15,36,0.06,7,Fog-Rain-Snow,319
2014-3-14,36,23,10,26,9,-3,70,51,37,30.22,30.08,29.95,10,10,10,16,9,23,0.00,1,,228
2014-3-15,53,44,35,37,30,21,89,63,43,29.92,29.80,29.70,10,10,8,18,12,28,0.00,3,Rain,242
2014-3-16,34,28,21,18,8,0,69,42,27,30.24,30.12,29.94,10,10,10,18,13,33,0.00,1,,296
2014-3-17,30,21,14,8,-2,-7,68,39,24,30.23,30.18,30.09,10,10,10,16,8,22,0.00,0,,356
2014-3-18,39,24,12,19,11,2,89,60,29,30.40,30.34,30.22,10,10,10,13,3,,0.00,0,,67
2014-3-19,42,28,17,31,24,15,96,76,53,30.44,30.28,30.05,10,10,10,16,4,,0.00,4,Rain,104
2014-3-20,50,42,35,41,34,26,100,84,47,30.02,29.74,29.61,10,7,2,21,8,30,0.47,6,Rain,297
2014-3-21,42,36,28,23,21,20,72,56,45,30.07,29.90,29.78,10,10,10,22,13,32,0.00,5,,266
2014-3-22,55,38,21,39,24,19,89,62,35,30.09,29.92,29.70,10,10,7,25,8,36,0.01,2,Rain,248
2014-3-23,42,33,21,24,14,1,78,49,29,30.12,30.00,29.95,10,10,10,18,9,24,0.00,1,,285
2014-3-24,30,21,12,7,-1,-5,62,39,22,30.22,30.16,30.09,10,10,10,17,10,26,0.00,0,,318
2014-3-25,37,23,10,15,8,4,84,51,27,30.19,30.11,29.96,10,10,10,14,4,22,0.00,3,Rain,207
2014-3-26,35,29,21,17,8,-2,59,42,26,30.06,29.80,29.65,10,10,6,31,16,47,0.00,5,Snow,338
2014-3-27,44,30,18,14,1,-2,44,30,16,30.36,30.28,30.09,10,10,10,18,14,26,0.00,1,,267
2014-3-28,57,44,34,49,38,16,97,76,48,30.26,30.07,29.95,10,10,6,20,11,29,0.04,7,Rain,210
2014-3-29,52,43,35,48,40,35,100,89,61,30.28,30.17,30.03,10,8,4,17,8,24,0.65,5,Rain,38
2014-3-30,39,37,35,40,38,34,100,99,96,29.99,29.73,29.65,10,4,2,20,13,26,1.89,8,Rain,20
2014-3-31,39,36,33,35,33,28,100,92,70,30.05,29.84,29.70,10,6,2,15,11,24,0.88,8,Rain,349